OICI  Ilam Airport

Add Bookmark

Ilam, Iran

Status IATA
Operational IIL
Latitude Longitude
33° 35' 11" N 46° 24' 17" E
33.586601 46.404800
Local (DST + 5) UTC (GMT + 4)
Jul 29, 2014 03:01 Jul 28, 2014 22:31
Sunrise-Sunset Local UTC
Begin Civil Twilight 06:05 01:35
Sunrise 06:33 02:03
Sunset 08:28 15:58
End Civil Twilight 08:55 16:25

Current Weather

METAR Observed VFR
OICI 282200Z 11004KT CAVOK 21/03 Q1009 A2981 Mon, Jul 28, 2014 @ 22:00 UTC
(31 Minutes ago)
Visual Flight Rules

Decoded METAR

Wind Visibility Clouds Conditions
110° at 4 knots (7 kph) 10 km or more
  • Clear skies
  • No significant weather
Temperatures Readings Precipitation
Current Temp 21°C (70°F)
Dewpoint 3°C (37°F)
Humidity 31%
Altimeter 29.79"Hg
Sea Level Pressure 1009mb
Field Elevation 4406.17'
None Recorded

Additional weather within a 185.2km radius of OICI

Map ICAO Location
OICC 109.3km N (039°)
OICK 174.8km E (095°)

24 Hour Weather History

Loading
-

24 Hour Weather Graphs

Loading
-

CheckWX.com is intended as a tool to help pilots better visualize weather data. It is not intended as a substitute for an official weather briefing obtained from a Flight Service Station. CheckWX.com does not meet the FAA requirements for an official pre-flight weather briefing. Therefore, it's important that pilots still call and obtain an official FSS pre-flight weather briefing.